Time;durP1;ratioP1;P1;durP2;ratioP2;P2;SDS_P1;SDS_P2;PMS_P1;PMS_P2;Temp;Humidity;BMP_temperature;BMP_pressure;BME280_temperature;BME280_humidity;BME280_pressure;Samples;Min_cycle;Max_cycle;Signal;HPM_P1;HPM_P2
2022/04/07 06:00:12;;;;;;;80.40;10.30;;;;;;;;;;6067999;23;20026;31
2022/04/07 06:02:40;;;;;;;69.63;9.40;;;;;;;;;;4901947;29;20108;-83
2022/04/07 06:05:09;;;;;;;70.32;9.35;;;;;;;;;;4911408;29;20083;-82
2022/04/07 06:07:37;;;;;;;83.55;10.98;;;;;;;;;;4913394;29;20049;-82
2022/04/07 06:10:04;;;;;;;84.03;10.43;;;;;;;;;;4911303;29;20091;-82
2022/04/07 06:12:31;;;;;;;74.00;10.65;;;;;;;;;;4911225;29;20136;-82
2022/04/07 06:14:57;;;;;;;73.93;10.27;;;;;;;;;;4913739;29;20135;-82
2022/04/07 06:17:41;;;;;;;80.47;10.45;;;;;;;;;;4910125;29;20143;-82
2022/04/07 06:20:11;;;;;;;87.60;10.70;;;;;;;;;;4911906;29;20083;-83
2022/04/07 06:22:43;;;;;;;89.57;11.07;;;;;;;;;;4914256;29;20070;-83
2022/04/07 06:25:11;;;;;;;82.38;11.82;;;;;;;;;;4911876;29;20041;-82
2022/04/07 06:27:45;;;;;;;75.80;11.30;;;;;;;;;;4914577;29;20584;-83
2022/04/07 06:30:15;;;;;;;76.80;9.85;;;;;;;;;;4916384;29;20055;-83
2022/04/07 06:32:42;;;;;;;94.90;11.52;;;;;;;;;;4915123;29;20214;-83
2022/04/07 06:35:11;;;;;;;87.40;11.18;;;;;;;;;;4913076;29;20043;-82
2022/04/07 06:37:53;;;;;;;78.38;11.00;;;;;;;;;;4914069;29;20501;-82
2022/04/07 06:40:21;;;;;;;84.22;9.98;;;;;;;;;;4913932;29;20044;-82
2022/04/07 06:42:49;;;;;;;77.97;10.68;;;;;;;;;;4914133;29;20127;-83
2022/04/07 06:45:22;;;;;;;93.85;12.25;;;;;;;;;;4915586;29;20107;-83
2022/04/07 06:47:50;;;;;;;80.20;10.43;;;;;;;;;;4917299;29;20457;-83
2022/04/07 06:50:17;;;;;;;85.85;11.57;;;;;;;;;;4913269;29;20044;-83
2022/04/07 06:52:44;;;;;;;75.32;10.48;;;;;;;;;;4915666;29;20482;-83
2022/04/07 06:55:13;;;;;;;84.63;11.38;;;;;;;;;;4913011;29;20083;-83
2022/04/07 06:58:06;;;;;;;78.88;10.80;;;;;;;;;;4914369;29;20048;-83
2022/04/07 07:00:34;;;;;;;84.50;9.75;;;;;;;;;;4896860;29;20064;-83
2022/04/07 07:03:03;;;;;;;87.85;11.90;;;;;;;;;;4916441;29;20539;-82
2022/04/07 07:05:32;;;;;;;100.35;12.18;;;;;;;;;;4909287;29;20131;-82
2022/04/07 07:08:13;;;;;;;100.65;12.50;;;;;;;;;;4914982;29;20144;-83
2022/04/07 07:10:40;;;;;;;76.50;11.23;;;;;;;;;;4913050;29;20597;-83
2022/04/07 07:13:07;;;;;;;84.38;12.55;;;;;;;;;;4912999;29;20073;-82
2022/04/07 07:15:34;;;;;;;96.22;11.82;;;;;;;;;;4914034;29;20422;-82
2022/04/07 07:18:00;;;;;;;78.35;9.80;;;;;;;;;;4916676;29;20048;-83
2022/04/07 07:20:27;;;;;;;81.72;11.18;;;;;;;;;;4912800;29;20068;-83
2022/04/07 07:22:53;;;;;;;86.72;11.93;;;;;;;;;;4913098;29;20127;-83
2022/04/07 07:25:20;;;;;;;78.15;10.40;;;;;;;;;;4913801;29;20082;-83
2022/04/07 07:27:47;;;;;;;15.55;2.70;;;;;;;;;;4913549;29;20491;-84
2022/04/07 07:30:15;;;;;;;10.90;2.15;;;;;;;;;;4915629;29;20568;-84
2022/04/07 07:32:44;;;;;;;10.88;1.73;;;;;;;;;;4913810;29;20565;-83
2022/04/07 07:35:11;;;;;;;;;;;;;;;;;;4911825;29;20527;-83
2022/04/07 07:37:47;;;;;;;5.93;1.33;;;;;;;;;;4911904;29;20006;-86
2022/04/07 07:40:13;;;;;;;8.82;1.20;;;;;;;;;;4911305;29;20136;-83
2022/04/07 07:42:40;;;;;;;9.10;0.98;;;;;;;;;;4912135;29;20067;-86
2022/04/07 07:45:07;;;;;;;6.60;0.90;;;;;;;;;;4913993;29;20052;-84
2022/04/07 07:47:35;;;;;;;5.25;0.75;;;;;;;;;;4912994;29;20080;-85
2022/04/07 07:50:03;;;;;;;5.37;0.70;;;;;;;;;;4910926;29;20048;-85
2022/04/07 07:52:30;;;;;;;6.95;0.98;;;;;;;;;;4911077;29;20068;-84
2022/04/07 07:54:56;;;;;;;4.22;0.60;;;;;;;;;;4911589;29;20075;-83
2022/04/07 07:57:23;;;;;;;4.93;0.57;;;;;;;;;;4913868;29;20135;-83
2022/04/07 07:59:51;;;;;;;5.45;0.77;;;;;;;;;;4913796;29;20519;-84
2022/04/07 08:02:18;;;;;;;5.30;0.60;;;;;;;;;;4912128;29;20064;-84
2022/04/07 08:04:46;;;;;;;2.75;0.40;;;;;;;;;;4914609;29;20391;-84
2022/04/07 08:07:13;;;;;;;6.03;0.47;;;;;;;;;;4911611;29;20134;-81
2022/04/07 08:09:40;;;;;;;3.78;0.70;;;;;;;;;;4912074;29;20571;-82
2022/04/07 08:12:07;;;;;;;1.45;0.32;;;;;;;;;;4914328;29;20048;-82
2022/04/07 08:14:34;;;;;;;4.22;0.73;;;;;;;;;;4913050;29;20102;-82
2022/04/07 08:17:01;;;;;;;3.65;0.65;;;;;;;;;;4911602;29;20076;-82
2022/04/07 08:19:27;;;;;;;1.10;0.30;;;;;;;;;;4910367;29;20064;-82
2022/04/07 08:21:54;;;;;;;4.68;0.50;;;;;;;;;;4911078;29;20071;-83
2022/04/07 08:24:22;;;;;;;1.85;0.60;;;;;;;;;;4913619;29;20150;-82
2022/04/07 08:26:49;;;;;;;2.78;0.50;;;;;;;;;;4912257;29;20135;-82
2022/04/07 08:29:15;;;;;;;5.50;0.70;;;;;;;;;;4909376;29;20048;-82
2022/04/07 08:31:43;;;;;;;6.80;0.75;;;;;;;;;;4908273;29;20068;-82
2022/04/07 08:34:10;;;;;;;3.90;0.57;;;;;;;;;;4908667;29;20124;-81
2022/04/07 08:36:37;;;;;;;8.38;0.95;;;;;;;;;;4909036;29;20140;-82
2022/04/07 08:39:04;;;;;;;8.93;1.00;;;;;;;;;;4909874;29;20138;-82
2022/04/07 08:41:31;;;;;;;8.13;0.95;;;;;;;;;;4909350;29;20592;-80
2022/04/07 08:43:58;;;;;;;7.20;0.88;;;;;;;;;;4908664;29;20603;-82
2022/04/07 08:46:31;;;;;;;6.40;0.95;;;;;;;;;;4909300;29;20560;-82
2022/04/07 08:49:01;;;;;;;8.70;1.35;;;;;;;;;;4908662;29;20056;-82
2022/04/07 08:51:29;;;;;;;9.05;1.30;;;;;;;;;;4908670;29;20171;-82
2022/04/07 08:53:55;;;;;;;12.18;1.13;;;;;;;;;;4910147;29;20079;-81
2022/04/07 08:56:23;;;;;;;7.18;1.13;;;;;;;;;;4908636;29;20076;-82
2022/04/07 08:58:50;;;;;;;7.45;0.85;;;;;;;;;;4908757;29;20048;-82
2022/04/07 09:01:17;;;;;;;6.95;1.10;;;;;;;;;;4907744;29;20047;-82
2022/04/07 09:03:44;;;;;;;11.15;1.30;;;;;;;;;;4908619;29;20394;-82
2022/04/07 09:06:10;;;;;;;7.32;1.30;;;;;;;;;;4908683;29;20488;-82
2022/04/07 09:08:39;;;;;;;11.75;1.23;;;;;;;;;;4909464;29;20107;-82
2022/04/07 09:11:08;;;;;;;7.38;1.35;;;;;;;;;;4905261;29;20128;-82
2022/04/07 09:13:41;;;;;;;10.43;1.23;;;;;;;;;;4908912;29;20048;-83
2022/04/07 09:16:12;;;;;;;9.98;1.70;;;;;;;;;;4907595;29;20131;-82
2022/04/07 09:18:40;;;;;;;15.52;1.73;;;;;;;;;;4902102;29;20052;-82
2022/04/07 09:21:15;;;;;;;13.10;2.25;;;;;;;;;;4902985;29;20124;-82
2022/04/07 09:23:42;;;;;;;13.55;2.08;;;;;;;;;;4891966;29;20135;-82
2022/04/07 09:26:14;;;;;;;11.60;1.40;;;;;;;;;;4907043;29;20048;-80
2022/04/07 09:28:41;;;;;;;7.97;1.38;;;;;;;;;;4905334;29;20060;-82
2022/04/07 09:31:13;;;;;;;7.05;1.10;;;;;;;;;;4905289;29;20079;-83
2022/04/07 09:33:42;;;;;;;12.98;1.83;;;;;;;;;;4907503;29;20060;-82
2022/04/07 09:36:11;;;;;;;16.33;1.88;;;;;;;;;;4908587;29;20067;-82
2022/04/07 09:38:38;;;;;;;16.00;1.90;;;;;;;;;;4908964;29;20131;-82
2022/04/07 09:41:10;;;;;;;19.75;2.75;;;;;;;;;;4907037;29;20460;-82
2022/04/07 09:43:45;;;;;;;13.38;1.40;;;;;;;;;;4902799;29;20167;-81
2022/04/07 09:46:13;;;;;;;18.13;2.03;;;;;;;;;;4908232;29;20135;-81
2022/04/07 09:49:01;;;;;;;14.38;1.55;;;;;;;;;;4908489;29;20048;-82
2022/04/07 09:51:29;;;;;;;11.02;1.98;;;;;;;;;;4830790;29;20058;-82
2022/04/07 09:53:57;;;;;;;14.68;2.00;;;;;;;;;;4831397;29;20094;-82
2022/04/07 09:56:27;;;;;;;14.57;1.80;;;;;;;;;;4830809;29;20077;-82
2022/04/07 09:58:55;;;;;;;10.65;1.80;;;;;;;;;;4831421;29;20050;-82
2022/04/07 10:01:27;;;;;;;14.13;1.52;;;;;;;;;;4840489;29;20614;-82
2022/04/07 10:03:55;;;;;;;9.90;1.42;;;;;;;;;;4849136;29;20053;-83
2022/04/07 10:06:22;;;;;;;13.32;1.88;;;;;;;;;;4850388;29;20128;-82
2022/04/07 10:08:49;;;;;;;14.95;2.03;;;;;;;;;;4850907;29;20096;-83
2022/04/07 10:11:19;;;;;;;11.63;1.42;;;;;;;;;;4846726;29;20184;-82
2022/04/07 10:13:53;;;;;;;12.52;2.55;;;;;;;;;;4850219;29;20153;-83
2022/04/07 10:16:40;;;;;;;12.90;2.08;;;;;;;;;;4850367;29;20061;-82
2022/04/07 10:19:14;;;;;;;16.27;1.65;;;;;;;;;;4849008;29;20622;-82
2022/04/07 10:21:56;;;;;;;10.60;1.80;;;;;;;;;;4848957;29;20458;-83
2022/04/07 10:24:35;;;;;;;14.35;2.00;;;;;;;;;;4847858;29;20050;-83
2022/04/07 10:27:26;;;;;;;15.98;2.00;;;;;;;;;;4848848;29;20056;-81
2022/04/07 10:30:09;;;;;;;14.02;1.40;;;;;;;;;;4922903;29;20060;-82
2022/04/07 10:32:38;;;;;;;7.70;1.27;;;;;;;;;;4907935;29;20052;-82
2022/04/07 10:35:05;;;;;;;14.52;2.38;;;;;;;;;;4907705;29;20076;-83
2022/04/07 10:37:46;;;;;;;6.00;1.20;;;;;;;;;;4908168;29;20107;-85
2022/04/07 10:40:37;;;;;;;8.45;0.95;;;;;;;;;;4903325;29;20078;-85
2022/04/07 10:43:04;;;;;;;6.90;0.68;;;;;;;;;;4907515;29;20070;-85
2022/04/07 10:45:34;;;;;;;5.05;0.88;;;;;;;;;;4906260;29;20052;-84
2022/04/07 10:48:30;;;;;;;5.10;1.17;;;;;;;;;;4923088;29;20052;-84
2022/04/07 10:51:00;;;;;;;6.68;1.38;;;;;;;;;;4906977;29;20140;-85
2022/04/07 10:53:51;;;;;;;5.80;0.60;;;;;;;;;;4907342;29;20129;-85
2022/04/07 10:56:39;;;;;;;7.43;1.00;;;;;;;;;;4907219;29;20147;-85
2022/04/07 10:59:21;;;;;;;3.20;0.70;;;;;;;;;;4906964;29;20155;-85
2022/04/07 11:02:04;;;;;;;3.85;0.80;;;;;;;;;;4907042;29;20068;-86
2022/04/07 11:04:35;;;;;;;6.00;1.13;;;;;;;;;;4907490;29;20072;-88
2022/04/07 11:09:45;;;;;;;6.03;1.00;;;;;;;;;;4910666;29;20052;-87
2022/04/07 11:12:20;;;;;;;10.60;1.00;;;;;;;;;;4910557;29;20048;-86
2022/04/07 11:14:48;;;;;;;8.48;1.05;;;;;;;;;;4911575;29;20051;-87
2022/04/07 11:17:41;;;;;;;8.97;1.27;;;;;;;;;;4910783;29;20071;-87
2022/04/07 11:20:21;;;;;;;7.00;1.00;;;;;;;;;;4833445;29;20485;-87
2022/04/07 11:22:56;;;;;;;7.65;1.40;;;;;;;;;;4833502;29;20549;-87
2022/04/07 11:25:31;;;;;;;5.90;1.00;;;;;;;;;;4833790;29;20106;-87
2022/04/07 11:28:30;;;;;;;9.32;1.23;;;;;;;;;;4818277;29;21688;-87
2022/04/07 11:31:00;;;;;;;;;;;;;;;;;;4804702;29;20050;-86
2022/04/07 11:33:28;;;;;;;6.25;1.25;;;;;;;;;;4833329;29;19928;-88
2022/04/07 11:36:02;;;;;;;7.03;1.20;;;;;;;;;;4819318;29;20102;-87
2022/04/07 11:38:30;;;;;;;8.05;1.45;;;;;;;;;;4817712;29;20060;-87
2022/04/07 11:41:09;;;;;;;12.75;1.88;;;;;;;;;;4833333;29;20534;-88
2022/04/07 11:43:48;;;;;;;10.10;1.65;;;;;;;;;;4832355;29;20106;-89
2022/04/07 11:46:23;;;;;;;9.65;1.55;;;;;;;;;;4833057;29;20133;-90
2022/04/07 11:48:58;;;;;;;6.93;1.50;;;;;;;;;;4833674;29;20049;-89
2022/04/07 11:51:26;;;;;;;12.30;2.00;;;;;;;;;;4818054;29;20608;-89
2022/04/07 11:53:54;;;;;;;11.97;1.63;;;;;;;;;;4834898;29;20050;-89
2022/04/07 11:56:27;;;;;;;8.10;1.35;;;;;;;;;;4842576;29;20100;-88
2022/04/07 11:58:55;;;;;;;7.57;1.30;;;;;;;;;;4894056;29;20040;-90
2022/04/07 12:01:23;;;;;;;13.05;1.65;;;;;;;;;;4910127;29;20048;-89
2022/04/07 12:03:54;;;;;;;13.93;1.52;;;;;;;;;;4910278;29;20080;-87
2022/04/07 12:06:23;;;;;;;13.63;1.95;;;;;;;;;;4909868;29;20543;-90
2022/04/07 12:08:51;;;;;;;15.35;1.98;;;;;;;;;;4892569;29;20481;-89
2022/04/07 12:11:21;;;;;;;9.23;1.47;;;;;;;;;;4909495;29;20052;-89
2022/04/07 12:13:53;;;;;;;13.70;2.25;;;;;;;;;;4910289;29;20336;-88
2022/04/07 12:16:23;;;;;;;13.40;1.58;;;;;;;;;;4911524;29;20754;-88
2022/04/07 12:18:58;;;;;;;13.32;1.90;;;;;;;;;;4909063;29;20059;-88
2022/04/07 12:21:27;;;;;;;15.63;2.60;;;;;;;;;;4911385;29;20052;-88
2022/04/07 12:24:07;;;;;;;13.48;2.00;;;;;;;;;;4895574;29;20593;-88
2022/04/07 12:26:45;;;;;;;13.77;2.33;;;;;;;;;;4909704;29;20084;-87
2022/04/07 12:29:13;;;;;;;15.02;2.38;;;;;;;;;;4904920;29;20100;-89
2022/04/07 12:31:40;;;;;;;12.80;2.00;;;;;;;;;;4891619;29;20052;-88
2022/04/07 12:34:08;;;;;;;12.98;2.20;;;;;;;;;;4908485;29;20044;-87
2022/04/07 12:36:37;;;;;;;15.38;2.47;;;;;;;;;;4897004;29;20055;-89
2022/04/07 12:39:05;;;;;;;;;;;;;;;;;;4910021;29;20048;-86
2022/04/07 12:41:40;;;;;;;14.70;1.65;;;;;;;;;;4892425;29;19970;-88
2022/04/07 12:44:08;;;;;;;12.93;2.28;;;;;;;;;;4908204;29;20072;-88
2022/04/07 12:46:51;;;;;;;15.98;2.30;;;;;;;;;;4909170;29;20111;-87
2022/04/07 12:49:37;;;;;;;18.95;2.20;;;;;;;;;;4905372;29;20584;-86
2022/04/07 12:52:08;;;;;;;19.50;2.58;;;;;;;;;;4892214;29;20079;-88
2022/04/07 12:54:35;;;;;;;9.50;1.85;;;;;;;;;;4909464;29;20079;-87
2022/04/07 12:57:12;;;;;;;16.20;2.15;;;;;;;;;;4905214;29;20075;-87
2022/04/07 13:00:06;;;;;;;13.48;1.90;;;;;;;;;;4908463;29;20100;-86
2022/04/07 13:02:46;;;;;;;16.13;1.63;;;;;;;;;;4922603;29;20055;-87
2022/04/07 13:05:19;;;;;;;11.85;2.03;;;;;;;;;;4905050;29;20040;-88
2022/04/07 13:07:46;;;;;;;15.73;2.00;;;;;;;;;;4908783;29;20087;-88
2022/04/07 13:10:13;;;;;;;21.90;2.95;;;;;;;;;;4922988;29;20076;-87
2022/04/07 13:12:40;;;;;;;15.23;1.90;;;;;;;;;;4908654;29;20072;-88
2022/04/07 13:15:08;;;;;;;11.10;2.22;;;;;;;;;;4908647;29;20080;-89
2022/04/07 13:17:34;;;;;;;12.95;1.92;;;;;;;;;;4909149;29;20056;-89
2022/04/07 13:20:01;;;;;;;16.42;2.78;;;;;;;;;;4907408;29;20099;-88
2022/04/07 13:22:32;;;;;;;22.13;2.65;;;;;;;;;;4908334;29;20076;-88
2022/04/07 13:24:59;;;;;;;15.77;2.22;;;;;;;;;;4908437;29;20091;-88
2022/04/07 13:27:26;;;;;;;22.58;3.05;;;;;;;;;;4909079;29;20119;-91
2022/04/07 13:29:53;;;;;;;12.77;2.50;;;;;;;;;;4908834;29;20075;-90
2022/04/07 13:32:24;;;;;;;24.00;2.83;;;;;;;;;;4905509;29;20051;-86
2022/04/07 13:34:51;;;;;;;9.27;1.98;;;;;;;;;;4908546;29;20044;-86
2022/04/07 13:37:18;;;;;;;14.75;1.95;;;;;;;;;;4908539;29;20068;-89
2022/04/07 13:39:45;;;;;;;17.42;2.60;;;;;;;;;;4913018;29;20536;-89
2022/04/07 13:42:34;;;;;;;12.70;1.70;;;;;;;;;;4906691;29;20052;-90
2022/04/07 13:45:01;;;;;;;21.70;2.25;;;;;;;;;;4908733;29;20052;-89
2022/04/07 13:47:27;;;;;;;15.70;1.83;;;;;;;;;;4909494;29;20052;-90
2022/04/07 13:49:54;;;;;;;16.25;2.20;;;;;;;;;;4905910;29;20052;-89
2022/04/07 13:52:21;;;;;;;14.15;1.83;;;;;;;;;;4905535;29;20083;-91
2022/04/07 13:54:48;;;;;;;16.65;1.90;;;;;;;;;;4912095;29;20047;-88
2022/04/07 13:57:15;;;;;;;16.02;2.50;;;;;;;;;;4908267;29;20486;-88
2022/04/07 13:59:41;;;;;;;16.35;2.40;;;;;;;;;;4923135;29;20079;-88
2022/04/07 14:02:08;;;;;;;16.92;2.53;;;;;;;;;;4905001;29;20048;-88
2022/04/07 14:04:35;;;;;;;15.15;2.70;;;;;;;;;;4907371;29;20130;-88
2022/04/07 14:07:03;;;;;;;22.23;2.80;;;;;;;;;;4922258;29;20158;-88
2022/04/07 14:09:30;;;;;;;20.38;2.78;;;;;;;;;;4906644;29;20052;-88
2022/04/07 14:11:57;;;;;;;14.48;3.20;;;;;;;;;;4924090;29;20108;-90
2022/04/07 14:14:25;;;;;;;15.27;2.30;;;;;;;;;;4907444;29;20099;-90
2022/04/07 14:16:53;;;;;;;18.88;1.98;;;;;;;;;;4906031;29;20259;-89
2022/04/07 14:19:20;;;;;;;17.25;3.33;;;;;;;;;;4906505;29;20112;-90
2022/04/07 14:21:47;;;;;;;16.70;2.33;;;;;;;;;;4924632;29;20052;-91
2022/04/07 14:24:14;;;;;;;16.75;3.05;;;;;;;;;;4913364;29;20048;-90
2022/04/07 14:26:41;;;;;;;16.05;2.95;;;;;;;;;;4910681;29;20051;-92
2022/04/07 14:29:08;;;;;;;13.52;2.38;;;;;;;;;;4923840;29;20044;-90
2022/04/07 14:31:36;;;;;;;13.40;2.30;;;;;;;;;;4909610;29;20406;-91
2022/04/07 14:34:03;;;;;;;11.57;1.83;;;;;;;;;;4909985;29;20052;-90
2022/04/07 14:36:31;;;;;;;11.32;1.70;;;;;;;;;;4925572;29;20087;-91
2022/04/07 14:38:58;;;;;;;13.25;2.10;;;;;;;;;;4913676;29;20059;-92
2022/04/07 14:41:25;;;;;;;15.40;1.98;;;;;;;;;;4928613;29;20111;-90
2022/04/07 14:43:52;;;;;;;18.40;2.40;;;;;;;;;;4931150;29;20048;-90
2022/04/07 14:46:20;;;;;;;16.63;2.35;;;;;;;;;;4924209;29;20178;-91
2022/04/07 14:48:54;;;;;;;13.30;2.45;;;;;;;;;;4916409;29;20051;-91
2022/04/07 14:51:32;;;;;;;16.80;2.38;;;;;;;;;;4904278;29;20048;-90
2022/04/07 14:54:00;;;;;;;14.68;3.10;;;;;;;;;;4926300;29;20515;-88
2022/04/07 14:56:27;;;;;;;15.23;2.53;;;;;;;;;;4909679;29;20573;-89
2022/04/07 14:58:54;;;;;;;13.88;2.15;;;;;;;;;;4904523;29;20080;-89
2022/04/07 15:01:20;;;;;;;15.98;2.15;;;;;;;;;;4904422;29;20104;-89
2022/04/07 15:03:47;;;;;;;17.33;2.15;;;;;;;;;;4877164;29;20132;-90
2022/04/07 15:06:14;;;;;;;17.15;2.88;;;;;;;;;;4878915;29;20053;-92
2022/04/07 15:08:41;;;;;;;15.82;2.85;;;;;;;;;;4895965;29;20104;-91
2022/04/07 15:11:08;;;;;;;14.85;2.20;;;;;;;;;;4895553;29;20112;-92
2022/04/07 15:13:35;;;;;;;12.95;2.53;;;;;;;;;;4896942;29;20116;-92
2022/04/07 15:16:03;;;;;;;13.07;2.70;;;;;;;;;;4894616;29;20047;-90
2022/04/07 15:18:30;;;;;;;16.60;2.38;;;;;;;;;;4887428;29;20057;-85
2022/04/07 15:20:57;;;;;;;15.82;2.38;;;;;;;;;;4891554;29;20691;-90
2022/04/07 15:23:24;;;;;;;20.00;2.80;;;;;;;;;;4893049;29;20049;-88
2022/04/07 15:25:51;;;;;;;19.88;2.90;;;;;;;;;;4876533;29;20055;-88
2022/04/07 15:28:18;;;;;;;20.85;2.53;;;;;;;;;;4873819;29;20103;-87
2022/04/07 15:30:44;;;;;;;20.20;2.83;;;;;;;;;;4893047;29;20482;-89
2022/04/07 15:33:16;;;;;;;18.90;3.13;;;;;;;;;;4882529;29;20189;-87
2022/04/07 15:35:42;;;;;;;14.63;2.30;;;;;;;;;;4892757;29;20053;-88
2022/04/07 15:38:26;;;;;;;17.33;2.42;;;;;;;;;;4882950;29;20055;-89
2022/04/07 15:41:08;;;;;;;19.90;3.00;;;;;;;;;;4890713;29;20079;-88
2022/04/07 15:43:40;;;;;;;18.05;2.67;;;;;;;;;;4891823;29;20112;-87
2022/04/07 15:46:07;;;;;;;17.48;2.10;;;;;;;;;;4876282;29;20120;-88
2022/04/07 15:48:34;;;;;;;21.15;2.90;;;;;;;;;;4892975;29;20049;-89
2022/04/07 15:51:05;;;;;;;16.52;3.13;;;;;;;;;;4888867;29;20057;-87
2022/04/07 15:53:32;;;;;;;16.98;2.60;;;;;;;;;;4889468;29;20116;-88
2022/04/07 15:55:58;;;;;;;18.42;2.92;;;;;;;;;;4875823;29;20059;-88
2022/04/07 15:58:27;;;;;;;17.83;2.75;;;;;;;;;;4890755;29;20052;-87
2022/04/07 16:00:54;;;;;;;;;;;;;;;;;;4897923;29;20052;-87
2022/04/07 16:03:21;;;;;;;21.30;2.63;;;;;;;;;;4913162;29;20299;-88
2022/04/07 16:05:49;;;;;;;19.20;2.97;;;;;;;;;;4914464;29;20056;-86
2022/04/07 16:08:16;;;;;;;21.15;3.42;;;;;;;;;;4910483;29;20052;-87
2022/04/07 16:10:43;;;;;;;23.88;3.40;;;;;;;;;;4910687;29;20115;-87
2022/04/07 16:13:23;;;;;;;16.38;2.80;;;;;;;;;;4915647;29;20099;-84
2022/04/07 16:15:50;;;;;;;24.45;3.83;;;;;;;;;;4898328;29;20079;-84
2022/04/07 16:18:17;;;;;;;15.07;2.80;;;;;;;;;;4917397;29;20056;-91
2022/04/07 16:20:44;;;;;;;17.20;2.97;;;;;;;;;;4890085;29;20061;-85
2022/04/07 16:23:10;;;;;;;17.65;2.60;;;;;;;;;;4899281;29;20147;-87
2022/04/07 16:25:37;;;;;;;18.02;2.92;;;;;;;;;;4902397;29;20509;-84
2022/04/07 16:28:04;;;;;;;13.05;2.30;;;;;;;;;;4891166;29;20063;-85
2022/04/07 16:30:37;;;;;;;26.20;3.80;;;;;;;;;;4907378;29;20148;-88
2022/04/07 16:33:04;;;;;;;15.93;2.65;;;;;;;;;;4907011;29;20143;-86
2022/04/07 16:35:31;;;;;;;21.80;3.88;;;;;;;;;;4910848;29;20052;-88
2022/04/07 16:37:57;;;;;;;19.17;3.05;;;;;;;;;;4913313;29;20048;-88
2022/04/07 16:40:24;;;;;;;16.45;2.78;;;;;;;;;;4910147;29;20052;-88
2022/04/07 16:42:54;;;;;;;26.27;3.25;;;;;;;;;;4891153;29;20474;-86
2022/04/07 16:45:25;;;;;;;18.48;2.65;;;;;;;;;;4883862;29;20044;-86
2022/04/07 16:47:52;;;;;;;20.38;3.70;;;;;;;;;;4902800;29;20799;-88
2022/04/07 16:50:19;;;;;;;15.40;2.70;;;;;;;;;;4907224;29;20549;-87
2022/04/07 16:52:45;;;;;;;25.58;3.15;;;;;;;;;;4906411;29;20121;-87
2022/04/07 16:55:14;;;;;;;21.65;2.90;;;;;;;;;;4902351;29;20067;-88
2022/04/07 16:57:40;;;;;;;18.48;2.33;;;;;;;;;;4905163;29;20529;-87
2022/04/07 17:00:07;;;;;;;16.00;2.40;;;;;;;;;;4887792;29;20450;-88
2022/04/07 17:02:38;;;;;;;20.15;2.80;;;;;;;;;;4908930;29;20580;-89
2022/04/07 17:05:06;;;;;;;18.25;3.28;;;;;;;;;;4908792;29;20082;-88
2022/04/07 17:07:33;;;;;;;17.77;3.50;;;;;;;;;;4908858;29;20619;-88
2022/04/07 17:09:59;;;;;;;19.83;3.38;;;;;;;;;;4904702;29;20104;-89
2022/04/07 17:12:28;;;;;;;18.55;2.92;;;;;;;;;;4908458;29;20056;-91
2022/04/07 17:14:57;;;;;;;22.45;3.30;;;;;;;;;;4911229;29;20077;-91
2022/04/07 17:17:24;;;;;;;16.17;2.95;;;;;;;;;;4905583;29;20116;-90
2022/04/07 17:19:51;;;;;;;21.08;2.80;;;;;;;;;;4905922;29;20063;-88
2022/04/07 17:22:18;;;;;;;19.25;3.20;;;;;;;;;;4915636;29;20508;-88
2022/04/07 17:24:45;;;;;;;21.38;3.50;;;;;;;;;;4910171;29;20059;-91
2022/04/07 17:27:13;;;;;;;19.17;3.90;;;;;;;;;;4911579;29;20150;-89
2022/04/07 17:30:11;;;;;;;18.38;3.03;;;;;;;;;;4917086;29;20127;-88
2022/04/07 17:33:33;;;;;;;16.63;2.88;;;;;;;;;;4905444;29;20078;-88
2022/04/07 17:36:13;;;;;;;;;;;;;;;;;;4912544;29;20064;-87
2022/04/07 17:38:42;;;;;;;21.77;2.55;;;;;;;;;;4906652;29;20436;-86
2022/04/07 17:41:19;;;;;;;24.60;2.83;;;;;;;;;;4891987;29;20111;-86
2022/04/07 17:43:57;;;;;;;14.23;2.92;;;;;;;;;;4908624;29;20131;-87
2022/04/07 17:46:26;;;;;;;20.98;3.20;;;;;;;;;;4913523;29;20052;-89
2022/04/07 17:48:53;;;;;;;17.08;2.90;;;;;;;;;;4898897;29;20052;-86
2022/04/07 17:51:19;;;;;;;26.30;3.45;;;;;;;;;;4906711;29;20089;-90
2022/04/07 17:53:57;;;;;;;18.65;3.15;;;;;;;;;;4918712;29;20055;-88
2022/04/07 17:56:26;;;;;;;23.38;3.00;;;;;;;;;;4856318;29;20058;-87
2022/04/07 17:59:06;;;;;;;20.52;3.80;;;;;;;;;;4907866;29;20051;-86
2022/04/07 18:02:10;;;;;;;25.13;4.05;;;;;;;;;;4864926;29;20069;-89
2022/04/07 18:05:03;;;;;;;24.90;3.28;;;;;;;;;;4893724;29;20051;-91
2022/04/07 18:07:29;;;;;;;31.38;3.80;;;;;;;;;;4878670;29;20044;-91
2022/04/07 18:09:58;;;;;;;24.05;3.72;;;;;;;;;;4915351;29;20047;-90
2022/04/07 18:12:42;;;;;;;31.33;3.72;;;;;;;;;;4916005;29;20490;-92
2022/04/07 18:15:10;;;;;;;31.35;6.07;;;;;;;;;;4910969;29;20044;-89
2022/04/07 18:17:38;;;;;;;29.30;4.50;;;;;;;;;;4907019;29;20052;-91
2022/04/07 18:20:11;;;;;;;29.42;4.47;;;;;;;;;;4904078;29;20048;-89
2022/04/07 18:22:44;;;;;;;34.33;5.22;;;;;;;;;;4896737;29;20090;-92
2022/04/07 18:25:17;;;;;;;33.45;4.82;;;;;;;;;;4911931;29;20604;-89
2022/04/07 18:27:44;;;;;;;24.48;5.00;;;;;;;;;;4912416;29;20548;-91
2022/04/07 18:30:13;;;;;;;30.15;4.25;;;;;;;;;;4927044;29;20044;-91
2022/04/07 18:32:41;;;;;;;31.13;3.60;;;;;;;;;;4914692;29;20078;-91
2022/04/07 18:35:10;;;;;;;37.38;4.10;;;;;;;;;;4925513;29;20513;-92
2022/04/07 18:37:37;;;;;;;31.45;5.55;;;;;;;;;;4915003;29;20060;-92
2022/04/07 18:40:05;;;;;;;27.38;4.28;;;;;;;;;;4912789;29;20477;-89
2022/04/07 18:42:32;;;;;;;35.08;4.55;;;;;;;;;;4914518;29;20063;-92
2022/04/07 18:44:59;;;;;;;26.95;3.90;;;;;;;;;;4936143;29;20040;-89
2022/04/07 18:47:28;;;;;;;47.78;5.43;;;;;;;;;;4925580;29;20049;-89
2022/04/07 18:49:58;;;;;;;38.72;4.30;;;;;;;;;;4910021;29;20063;-90
2022/04/07 18:52:25;;;;;;;31.05;4.10;;;;;;;;;;4908007;29;20048;-90
2022/04/07 18:54:52;;;;;;;34.95;3.72;;;;;;;;;;4910665;29;20108;-93
2022/04/07 18:57:21;;;;;;;35.20;5.00;;;;;;;;;;4914478;29;20083;-90
2022/04/07 18:59:50;;;;;;;33.05;4.80;;;;;;;;;;4913424;29;20120;-90
2022/04/07 19:02:17;;;;;;;30.23;4.93;;;;;;;;;;4910839;29;20076;-89
2022/04/07 19:04:44;;;;;;;32.05;4.60;;;;;;;;;;4927320;29;20508;-90
2022/04/07 19:07:19;;;;;;;37.03;6.70;;;;;;;;;;4926661;29;20489;-88
2022/04/07 19:09:46;;;;;;;28.38;4.38;;;;;;;;;;4929077;29;20612;-90
2022/04/07 19:12:13;;;;;;;33.13;4.90;;;;;;;;;;4912067;29;20509;-86
2022/04/07 19:14:40;;;;;;;32.28;4.40;;;;;;;;;;4911976;29;20052;-87
2022/04/07 19:17:06;;;;;;;28.83;4.82;;;;;;;;;;4911691;29;20509;-86
2022/04/07 19:19:33;;;;;;;37.40;4.20;;;;;;;;;;4911605;29;20052;-90
2022/04/07 19:22:00;;;;;;;33.53;3.55;;;;;;;;;;4911860;29;20095;-87
2022/04/07 19:24:28;;;;;;;31.88;4.60;;;;;;;;;;4924921;29;20103;-88
2022/04/07 19:26:56;;;;;;;27.02;4.30;;;;;;;;;;4910614;29;20071;-86
2022/04/07 19:29:22;;;;;;;34.47;4.82;;;;;;;;;;4910639;29;20139;-87
2022/04/07 19:31:51;;;;;;;32.20;4.07;;;;;;;;;;4908632;29;20072;-87
2022/04/07 19:34:21;;;;;;;26.40;4.53;;;;;;;;;;4909044;29;20123;-86
2022/04/07 19:36:49;;;;;;;34.65;7.50;;;;;;;;;;4908998;29;20052;-87
2022/04/07 19:39:16;;;;;;;30.38;4.20;;;;;;;;;;4910153;29;20052;-86
2022/04/07 19:41:43;;;;;;;62.75;23.13;;;;;;;;;;4911511;29;20136;-86
2022/04/07 19:44:10;;;;;;;29.95;5.38;;;;;;;;;;4910442;29;20520;-87
2022/04/07 19:46:37;;;;;;;33.92;4.53;;;;;;;;;;4911105;29;20143;-86
2022/04/07 19:49:03;;;;;;;52.97;18.50;;;;;;;;;;4926299;29;20075;-87
2022/04/07 19:51:30;;;;;;;32.13;6.07;;;;;;;;;;4911486;29;20099;-86
2022/04/07 19:53:57;;;;;;;32.92;4.60;;;;;;;;;;4910862;29;20047;-85
2022/04/07 19:56:23;;;;;;;35.00;6.45;;;;;;;;;;4924244;29;20062;-87
2022/04/07 19:58:50;;;;;;;54.03;11.20;;;;;;;;;;4909336;29;20079;-85
2022/04/07 20:01:16;;;;;;;32.95;5.25;;;;;;;;;;4910330;29;20167;-85
2022/04/07 20:03:43;;;;;;;27.77;5.25;;;;;;;;;;4910375;29;20058;-88
2022/04/07 20:06:11;;;;;;;34.60;4.90;;;;;;;;;;4911489;29;20052;-87
2022/04/07 20:08:39;;;;;;;23.38;4.50;;;;;;;;;;4907315;29;20062;-86
2022/04/07 20:11:06;;;;;;;33.95;3.83;;;;;;;;;;4905550;29;20155;-86
2022/04/07 20:13:32;;;;;;;33.60;4.32;;;;;;;;;;4893044;29;20071;-86
2022/04/07 20:16:04;;;;;;;37.47;3.92;;;;;;;;;;4909553;29;20051;-85
2022/04/07 20:18:31;;;;;;;35.63;4.10;;;;;;;;;;4909414;29;20135;-86
2022/04/07 20:20:58;;;;;;;28.27;3.95;;;;;;;;;;4909566;29;20356;-85
2022/04/07 20:23:24;;;;;;;29.77;3.40;;;;;;;;;;4908522;29;20067;-87
2022/04/07 20:25:54;;;;;;;30.08;4.85;;;;;;;;;;4891224;29;20068;-84
2022/04/07 20:28:20;;;;;;;29.27;3.85;;;;;;;;;;4909123;29;20478;-86
2022/04/07 20:30:51;;;;;;;31.52;3.63;;;;;;;;;;4909212;29;20134;-87
2022/04/07 20:33:17;;;;;;;35.95;4.10;;;;;;;;;;4908834;29;20781;-85
2022/04/07 20:35:44;;;;;;;33.70;3.83;;;;;;;;;;4905051;29;20138;-87
2022/04/07 20:38:11;;;;;;;29.98;4.55;;;;;;;;;;4898272;29;20041;-87
2022/04/07 20:40:38;;;;;;;29.15;3.92;;;;;;;;;;4903252;29;20505;-86
2022/04/07 20:43:05;;;;;;;28.25;3.88;;;;;;;;;;4906924;29;20048;-85
2022/04/07 20:45:33;;;;;;;27.58;4.45;;;;;;;;;;4894222;29;20449;-86
2022/04/07 20:48:00;;;;;;;25.30;3.22;;;;;;;;;;4900067;29;20052;-86
2022/04/07 20:50:26;;;;;;;33.05;4.45;;;;;;;;;;4906342;29;20147;-86
2022/04/07 20:52:54;;;;;;;28.98;4.65;;;;;;;;;;4900154;29;20509;-85